| time (UTC) | temp C | wind direction | speed KPH | gust KPH | rain 1hr cm | rain 24hr cm | rain mn cm | humidity % | barometer mb |
| 20260506024505 | 7 | 201 | 0.0 | 1.6 | 0.00 | 0.46 | 0.46 | 94 | 1009.7 |
| 20260506024005 | 7 | 190 | 0.0 | 1.6 | 0.00 | 0.46 | 0.46 | 94 | 1009.6 |
| 20260506023505 | 7 | 188 | 0.0 | 1.6 | 0.00 | 0.46 | 0.46 | 94 | 1009.4 |
| 20260506023005 | 7 | 195 | 0.0 | 4.8 | 0.03 | 0.46 | 0.46 | 94 | 1009.5 |
| 20260506022505 | 7 | 154 | 0.0 | 4.8 | 0.03 | 0.46 | 0.46 | 94 | 1009.5 |
| 20260506022005 | 7 | 49 | 0.0 | 3.2 | 0.03 | 0.46 | 0.46 | 94 | 1009.4 |
| 20260506021505 | 7 | 277 | 0.0 | 4.8 | 0.03 | 0.46 | 0.46 | 94 | 1009.4 |
| 20260506021005 | 7 | 223 | 0.0 | 4.8 | 0.03 | 0.46 | 0.46 | 94 | 1009.5 |
| 20260506020505 | 7 | 194 | 0.0 | 1.6 | 0.05 | 0.46 | 0.46 | 94 | 1009.3 |
| 20260506020005 | 7 | 185 | 0.0 | 1.6 | 0.05 | 0.46 | 0.46 | 94 | 1009.1 |
| 20260506015505 | 7 | 186 | 0.0 | 1.6 | 0.08 | 0.46 | 0.46 | 94 | 1009.0 |
| 20260506015005 | 7 | 190 | 0.0 | 1.6 | 0.08 | 0.46 | 0.46 | 94 | 1009.0 |
| 20260506014505 | 7 | 176 | 0.0 | 3.2 | 0.08 | 0.46 | 0.46 | 94 | 1008.9 |
| 20260506014005 | 7 | 160 | 0.0 | 3.2 | 0.10 | 0.46 | 0.46 | 93 | 1008.4 |
| 20260506013505 | 7 | 154 | 0.0 | 1.6 | 0.10 | 0.46 | 0.46 | 93 | 1008.7 |
| 20260506013005 | 7 | 154 | 0.0 | 1.6 | 0.10 | 0.43 | 0.43 | 93 | 1008.7 |
| 20260506012505 | 7 | 138 | 1.6 | 3.2 | 0.10 | 0.43 | 0.43 | 93 | 1008.5 |
| 20260506012005 | 8 | 137 | 1.6 | 3.2 | 0.10 | 0.43 | 0.43 | 93 | 1008.6 |
| 20260506011505 | 8 | 149 | 1.6 | 3.2 | 0.13 | 0.43 | 0.43 | 93 | 1008.7 |
| 20260506011005 | 8 | 155 | 1.6 | 3.2 | 0.13 | 0.43 | 0.43 | 93 | 1008.7 |
| 20260506010505 | 8 | 162 | 0.0 | 1.6 | 0.10 | 0.41 | 0.41 | 93 | 1008.8 |
| 20260506010005 | 8 | 168 | 0.0 | 1.6 | 0.10 | 0.41 | 0.41 | 92 | 1008.7 |
| 20260506005505 | 8 | 172 | 0.0 | 3.2 | 0.10 | 0.38 | 0.38 | 92 | 1008.6 |
| 20260506005005 | 8 | 170 | 0.0 | 3.2 | 0.10 | 0.38 | 0.38 | 92 | 1008.7 |
| 20260506004505 | 8 | 172 | 0.0 | 1.6 | 0.10 | 0.38 | 0.38 | 92 | 1008.6 |
| 20260506004005 | 8 | 178 | 0.0 | 1.6 | 0.08 | 0.36 | 0.36 | 92 | 1008.5 |
| 20260506003505 | 8 | 180 | 0.0 | 1.6 | 0.10 | 0.36 | 0.36 | 92 | 1008.3 |
| 20260506003005 | 8 | 180 | 0.0 | 1.6 | 0.08 | 0.33 | 0.33 | 91 | 1008.3 |
| 20260506002505 | 8 | 184 | 0.0 | 1.6 | 0.10 | 0.33 | 0.33 | 91 | 1008.3 |
| 20260506002005 | 8 | 182 | 0.0 | 3.2 | 0.10 | 0.33 | 0.33 | 91 | 1008.3 |
| 20260506001505 | 8 | 165 | 0.0 | 3.2 | 0.10 | 0.30 | 0.30 | 91 | 1008.2 |
| 20260506001005 | 8 | 174 | 0.0 | 3.2 | 0.10 | 0.30 | 0.30 | 90 | 1007.9 |
| 20260506000505 | 8 | 225 | 0.0 | 3.2 | 0.13 | 0.30 | 0.30 | 90 | 1007.9 |
| 20260506000005 | 9 | 206 | 0.0 | 3.2 | 0.13 | 0.30 | 0.30 | 89 | 1007.7 |
| 20260505235505 | 9 | 176 | 0.0 | 3.2 | 0.10 | 0.28 | 0.28 | 89 | 1007.6 |
| 20260505235005 | 9 | 173 | 0.0 | 3.2 | 0.10 | 0.28 | 0.28 | 89 | 1007.6 |
| 20260505234505 | 9 | 197 | 0.0 | 3.2 | 0.10 | 0.28 | 0.28 | 88 | 1007.3 |
| 20260505234005 | 10 | 258 | 0.0 | 1.6 | 0.10 | 0.28 | 0.28 | 87 | 1007.2 |
| 20260505233505 | 10 | 258 | 0.0 | 1.6 | 0.08 | 0.25 | 0.25 | 87 | 1007.2 |
| 20260505233005 | 10 | 258 | 0.0 | 1.6 | 0.08 | 0.25 | 0.25 | 85 | 1007.1 |
| 20260505232505 | 10 | 255 | 0.0 | 3.2 | 0.05 | 0.23 | 0.23 | 84 | 1007.3 |
| 20260505232005 | 10 | 258 | 1.6 | 4.8 | 0.05 | 0.23 | 0.23 | 81 | 1007.2 |
| 20260505231505 | 10 | 270 | 1.6 | 4.8 | 0.03 | 0.20 | 0.20 | 79 | 1007.1 |
| 20260505231005 | 11 | 293 | 1.6 | 6.4 | 0.03 | 0.20 | 0.20 | 78 | 1007.0 |
| 20260505230505 | 11 | 296 | 3.2 | 9.7 | 0.00 | 0.18 | 0.18 | 74 | 1007.1 |
| 20260505230005 | 11 | 303 | 4.8 | 12.9 | 0.00 | 0.18 | 0.18 | 70 | 1007.0 |
| 20260505225505 | 12 | 302 | 6.4 | 14.5 | 0.00 | 0.18 | 0.18 | 67 | 1006.8 |
| 20260505225005 | 12 | 301 | 8.0 | 22.5 | 0.00 | 0.18 | 0.18 | 65 | 1006.5 |
| 20260505224505 | 13 | 314 | 8.0 | 22.5 | 0.00 | 0.18 | 0.18 | 61 | 1006.4 |
| 20260505224005 | 14 | 316 | 6.4 | 20.9 | 0.00 | 0.18 | 0.18 | 56 | 1006.3 |
| 20260505223505 | 15 | 294 | 4.8 | 9.7 | 0.00 | 0.18 | 0.18 | 54 | 1006.1 |
| 20260505223005 | 15 | 290 | 4.8 | 16.1 | 0.00 | 0.18 | 0.18 | 51 | 1006.1 |
| 20260505222505 | 15 | 288 | 4.8 | 16.1 | 0.00 | 0.18 | 0.18 | 52 | 1005.8 |
| 20260505222005 | 15 | 294 | 4.8 | 12.9 | 0.00 | 0.18 | 0.18 | 54 | 1005.5 |
| 20260505221505 | 15 | 305 | 4.8 | 17.7 | 0.00 | 0.18 | 0.18 | 55 | 1005.5 |
| 20260505221005 | 15 | 308 | 4.8 | 17.7 | 0.00 | 0.18 | 0.18 | 53 | 1005.3 |
| 20260505220505 | 15 | 304 | 4.8 | 12.9 | 0.00 | 0.18 | 0.18 | 55 | 1005.2 |
| 20260505220005 | 15 | 295 | 4.8 | 11.3 | 0.00 | 0.18 | 0.18 | 56 | 1005.2 |
| 20260505215505 | 15 | 293 | 4.8 | 11.3 | 0.00 | 0.18 | 0.18 | 56 | 1005.0 |
| 20260505215005 | 15 | 291 | 4.8 | 11.3 | 0.00 | 0.18 | 0.18 | 56 | 1004.7 |
| 20260505214505 | 15 | 282 | 4.8 | 11.3 | 0.00 | 0.18 | 0.18 | 57 | 1004.7 |
| 20260505214005 | 15 | 304 | 4.8 | 11.3 | 0.00 | 0.18 | 0.18 | 57 | 1004.8 |
| 20260505213505 | 15 | 304 | 6.4 | 16.1 | 0.00 | 0.18 | 0.18 | 59 | 1004.4 |
| 20260505213005 | 15 | 301 | 6.4 | 16.1 | 0.00 | 0.18 | 0.18 | 58 | 1004.3 |
| 20260505212505 | 15 | 309 | 6.4 | 12.9 | 0.00 | 0.18 | 0.18 | 58 | 1004.5 |
| 20260505212005 | 15 | 306 | 4.8 | 11.3 | 0.00 | 0.18 | 0.18 | 57 | 1004.2 |
| 20260505211505 | 16 | 299 | 4.8 | 9.7 | 0.00 | 0.18 | 0.18 | 59 | 1004.2 |
| 20260505211005 | 16 | 302 | 4.8 | 16.1 | 0.00 | 0.18 | 0.18 | 58 | 1004.2 |
| 20260505210505 | 16 | 303 | 4.8 | 16.1 | 0.00 | 0.18 | 0.18 | 57 | 1004.1 |
| 20260505210005 | 16 | 303 | 4.8 | 11.3 | 0.00 | 0.18 | 0.18 | 59 | 1003.8 |
| 20260505205505 | 16 | 301 | 4.8 | 11.3 | 0.00 | 0.18 | 0.18 | 58 | 1003.8 |
| 20260505205005 | 16 | 304 | 6.4 | 20.9 | 0.00 | 0.18 | 0.18 | 61 | 1003.7 |
| 20260505204505 | 16 | 309 | 6.4 | 20.9 | 0.00 | 0.18 | 0.18 | 61 | 1003.8 |
| 20260505204004 | 17 | 301 | 6.4 | 20.9 | 0.00 | 0.18 | 0.18 | 64 | 1003.8 |
| 20260505203505 | 17 | 295 | 6.4 | 16.1 | 0.00 | 0.18 | 0.18 | 63 | 1003.7 |
| 20260505203005 | 18 | 291 | 4.8 | 12.9 | 0.00 | 0.18 | 0.18 | 64 | 1003.6 |
| 20260505202505 | 18 | 289 | 3.2 | 9.7 | 0.00 | 0.18 | 0.18 | 62 | 1003.5 |
| 20260505202005 | 19 | 270 | 3.2 | 11.3 | 0.00 | 0.18 | 0.18 | 60 | 1003.4 |
| 20260505201505 | 20 | 227 | 3.2 | 14.5 | 0.00 | 0.18 | 0.18 | 59 | 1003.3 |
| 20260505201005 | 20 | 202 | 4.8 | 14.5 | 0.00 | 0.18 | 0.18 | 59 | 1003.0 |
| 20260505200505 | 20 | 192 | 3.2 | 12.9 | 0.00 | 0.18 | 0.18 | 58 | 1002.7 |
| 20260505200005 | 20 | 243 | 3.2 | 9.7 | 0.00 | 0.18 | 0.18 | 58 | 1002.6 |
| 20260505195505 | 20 | 248 | 3.2 | 9.7 | 0.00 | 0.18 | 0.18 | 58 | 1002.6 |
| 20260505195004 | 20 | 235 | 3.2 | 14.5 | 0.00 | 0.18 | 0.18 | 58 | 1002.8 |
| 20260505194504 | 20 | 234 | 4.8 | 14.5 | 0.00 | 0.18 | 0.18 | 57 | 1002.6 |
| 20260505194005 | 20 | 222 | 4.8 | 11.3 | 0.00 | 0.18 | 0.18 | 58 | 1002.5 |
| 20260505193505 | 20 | 227 | 4.8 | 12.9 | 0.00 | 0.18 | 0.18 | 56 | 1002.5 |
| 20260505193005 | 21 | 251 | 4.8 | 14.5 | 0.00 | 0.18 | 0.18 | 56 | 1002.5 |
| 20260505192505 | 21 | 258 | 4.8 | 17.7 | 0.00 | 0.18 | 0.18 | 54 | 1002.5 |
| 20260505192005 | 21 | 221 | 6.4 | 25.7 | 0.00 | 0.18 | 0.18 | 55 | 1002.5 |
| 20260505191504 | 21 | 200 | 6.4 | 25.7 | 0.00 | 0.18 | 0.18 | 53 | 1002.3 |
| 20260505191004 | 21 | 232 | 4.8 | 11.3 | 0.00 | 0.18 | 0.18 | 53 | 1002.5 |
| 20260505190505 | 22 | 264 | 4.8 | 11.3 | 0.00 | 0.18 | 0.18 | 54 | 1002.5 |
| 20260505190005 | 22 | 286 | 4.8 | 17.7 | 0.00 | 0.18 | 0.18 | 53 | 1002.3 |
| 20260505185505 | 21 | 271 | 4.8 | 17.7 | 0.00 | 0.18 | 0.18 | 54 | 1002.2 |
| 20260505185005 | 22 | 251 | 4.8 | 14.5 | 0.00 | 0.18 | 0.18 | 52 | 1002.2 |
| 20260505184505 | 22 | 239 | 4.8 | 17.7 | 0.00 | 0.18 | 0.18 | 52 | 1002.4 |
| 20260505184005 | 22 | 232 | 4.8 | 17.7 | 0.00 | 0.18 | 0.18 | 53 | 1002.3 |
| 20260505183504 | 21 | 229 | 4.8 | 16.1 | 0.00 | 0.18 | 0.18 | 54 | 1002.3 |
| 20260505183005 | 21 | 205 | 4.8 | 14.5 | 0.00 | 0.18 | 0.18 | 54 | 1002.3 |
| 20260505182504 | 21 | 228 | 3.2 | 14.5 | 0.00 | 0.18 | 0.18 | 57 | 1002.4 |
| 20260505182005 | 20 | 230 | 4.8 | 14.5 | 0.00 | 0.18 | 0.18 | 58 | 1002.2 |
| 20260505181504 | 20 | 209 | 4.8 | 14.5 | 0.00 | 0.18 | 0.18 | 56 | 1002.3 |
| 20260505181004 | 20 | 214 | 4.8 | 12.9 | 0.00 | 0.18 | 0.18 | 57 | 1002.3 |
| 20260505180505 | 20 | 210 | 4.8 | 14.5 | 0.00 | 0.18 | 0.18 | 56 | 1002.1 |
| 20260505180004 | 20 | 260 | 4.8 | 20.9 | 0.00 | 0.18 | 0.18 | 57 | 1002.0 |
| 20260505175504 | 20 | 273 | 4.8 | 20.9 | 0.00 | 0.18 | 0.18 | 59 | 1002.1 |
| 20260505175004 | 20 | 250 | 4.8 | 14.5 | 0.00 | 0.18 | 0.18 | 59 | 1002.3 |
| 20260505174504 | 19 | 224 | 3.2 | 14.5 | 0.00 | 0.18 | 0.18 | 60 | 1002.3 |
| 20260505174005 | 20 | 233 | 3.2 | 12.9 | 0.00 | 0.18 | 0.18 | 60 | 1002.2 |
| 20260505173504 | 20 | 246 | 3.2 | 11.3 | 0.00 | 0.18 | 0.18 | 60 | 1002.2 |
| 20260505173004 | 20 | 244 | 4.8 | 22.5 | 0.00 | 0.18 | 0.18 | 59 | 1002.2 |
| 20260505172504 | 18 | 257 | 4.8 | 22.5 | 0.00 | 0.18 | 0.18 | 65 | 1002.2 |
| 20260505172004 | 18 | 294 | 3.2 | 11.3 | 0.00 | 0.18 | 0.18 | 64 | 1002.3 |
| 20260505171505 | 17 | 260 | 3.2 | 11.3 | 0.00 | 0.18 | 0.18 | 67 | 1002.2 |
| 20260505171005 | 16 | 224 | 3.2 | 11.3 | 0.00 | 0.18 | 0.18 | 68 | 1002.3 |
| 20260505170504 | 16 | 243 | 3.2 | 17.7 | 0.00 | 0.18 | 0.18 | 68 | 1002.5 |
| 20260505170005 | 16 | 242 | 4.8 | 17.7 | 0.00 | 0.18 | 0.18 | 68 | 1002.5 |
| 20260505165505 | 16 | 233 | 4.8 | 20.9 | 0.00 | 0.18 | 0.18 | 68 | 1002.5 |
| 20260505165004 | 16 | 234 | 4.8 | 20.9 | 0.00 | 0.18 | 0.18 | 67 | 1002.4 |
| 20260505164504 | 16 | 199 | 3.2 | 9.7 | 0.00 | 0.18 | 0.18 | 68 | 1002.3 |
| 20260505164004 | 16 | 202 | 1.6 | 6.4 | 0.00 | 0.18 | 0.18 | 67 | 1002.3 |
| 20260505163504 | 16 | 181 | 3.2 | 16.1 | 0.00 | 0.18 | 0.18 | 68 | 1002.3 |
| 20260505163004 | 16 | 188 | 4.8 | 16.1 | 0.00 | 0.18 | 0.18 | 67 | 1002.3 |
| 20260505162504 | 16 | 184 | 4.8 | 16.1 | 0.00 | 0.18 | 0.18 | 67 | 1002.1 |
| 20260505162005 | 16 | 202 | 4.8 | 12.9 | 0.00 | 0.18 | 0.18 | 68 | 1001.9 |
| 20260505161504 | 16 | 211 | 4.8 | 12.9 | 0.00 | 0.18 | 0.18 | 67 | 1001.7 |
| 20260505161004 | 16 | 225 | 3.2 | 12.9 | 0.00 | 0.18 | 0.18 | 68 | 1001.7 |
| 20260505160505 | 16 | 209 | 3.2 | 20.9 | 0.00 | 0.18 | 0.18 | 69 | 1001.7 |
| 20260505153004 | 17 | 200 | 3.2 | 14.5 | 0.00 | 0.18 | 0.18 | 67 | 1001.8 |
| 20260505152504 | 17 | 193 | 3.2 | 14.5 | 0.00 | 0.18 | 0.18 | 67 | 1001.7 |
| 20260505152004 | 17 | 168 | 3.2 | 12.9 | 0.00 | 0.18 | 0.18 | 66 | 1001.7 |
| 20260505151505 | 17 | 190 | 3.2 | 12.9 | 0.00 | 0.18 | 0.18 | 65 | 1001.8 |
| 20260505151004 | 18 | 209 | 3.2 | 12.9 | 0.00 | 0.18 | 0.18 | 64 | 1001.7 |
| 20260505150504 | 18 | 215 | 4.8 | 12.9 | 0.00 | 0.18 | 0.18 | 64 | 1001.5 |
| 20260505140504 | 17 | 153 | 4.8 | 20.9 | 0.00 | 0.18 | 0.18 | 66 | 1000.6 |
| 20260505125004 | 16 | 223 | 3.2 | 14.5 | 0.00 | 0.18 | 0.18 | 71 | 1000.4 |
| 20260505124504 | 16 | 221 | 3.2 | 16.1 | 0.00 | 0.18 | 0.18 | 69 | 1000.5 |
| 20260505124004 | 16 | 165 | 3.2 | 16.1 | 0.00 | 0.18 | 0.18 | 72 | 1000.6 |
| 20260505123504 | 16 | 160 | 3.2 | 16.1 | 0.00 | 0.18 | 0.18 | 73 | 1000.2 |
| 20260505123004 | 15 | 185 | 1.6 | 11.3 | 0.00 | 0.18 | 0.18 | 75 | 1000.7 |
| 20260505122504 | 15 | 191 | 1.6 | 11.3 | 0.00 | 0.18 | 0.18 | 76 | 1000.4 |
| 20260505122004 | 15 | 177 | 1.6 | 6.4 | 0.00 | 0.18 | 0.18 | 79 | 1000.4 |
| 20260505121504 | 14 | 158 | 3.2 | 6.4 | 0.00 | 0.18 | 0.18 | 78 | 1000.5 |
| 20260505121004 | 14 | 170 | 1.6 | 6.4 | 0.00 | 0.18 | 0.18 | 81 | 1000.5 |
| 20260505120504 | 15 | 180 | 1.6 | 9.7 | 0.00 | 0.18 | 0.18 | 82 | 1000.6 |
| 20260505120005 | 15 | 172 | 1.6 | 9.7 | 0.00 | 0.18 | 0.18 | 77 | 1000.9 |
| 20260505115504 | 15 | 163 | 1.6 | 6.4 | 0.00 | 0.18 | 0.18 | 76 | 1000.8 |
| 20260505115004 | 15 | 173 | 1.6 | 4.8 | 0.00 | 0.18 | 0.18 | 74 | 1000.5 |
| 20260505114504 | 16 | 187 | 4.8 | 16.1 | 0.00 | 0.20 | 0.18 | 74 | 1000.6 |
| 20260505114004 | 16 | 167 | 6.4 | 17.7 | 0.00 | 0.25 | 0.18 | 75 | 1000.5 |
| 20260505113504 | 15 | 169 | 4.8 | 17.7 | 0.00 | 0.25 | 0.18 | 76 | 1000.4 |
| 20260505113005 | 15 | 211 | 3.2 | 14.5 | 0.00 | 0.25 | 0.18 | 78 | 1000.6 |
| 20260505112504 | 14 | 291 | 3.2 | 9.7 | 0.00 | 0.25 | 0.18 | 80 | 1000.3 |
| 20260505112004 | 15 | 292 | 3.2 | 9.7 | 0.00 | 0.25 | 0.18 | 80 | 1000.6 |
| 20260505111504 | 14 | 275 | 3.2 | 9.7 | 0.00 | 0.25 | 0.18 | 81 | 1000.5 |
| 20260505111004 | 13 | 264 | 1.6 | 9.7 | 0.00 | 0.25 | 0.18 | 83 | 1000.4 |
| 20260505110504 | 13 | 236 | 1.6 | 4.8 | 0.00 | 0.25 | 0.18 | 85 | 1000.3 |
| 20260505102004 | 12 | 212 | 0.0 | 3.2 | 0.03 | 0.25 | 0.18 | 90 | 1000.1 |
| 20260505101504 | 12 | 210 | 0.0 | 3.2 | 0.03 | 0.25 | 0.18 | 89 | 1000.3 |
| 20260505101004 | 12 | 198 | 0.0 | 4.8 | 0.10 | 0.25 | 0.18 | 89 | 1000.0 |
| 20260505100504 | 12 | 168 | 1.6 | 4.8 | 0.15 | 0.25 | 0.18 | 89 | 1000.2 |
| 20260505100004 | 12 | 176 | 1.6 | 4.8 | 0.18 | 0.25 | 0.18 | 88 | 1000.2 |
| 20260505095504 | 12 | 178 | 1.6 | 4.8 | 0.18 | 0.25 | 0.18 | 89 | 1000.5 |
| 20260505095004 | 12 | 158 | 1.6 | 6.4 | 0.18 | 0.25 | 0.18 | 89 | 1000.3 |
| 20260505094504 | 12 | 161 | 1.6 | 6.4 | 0.18 | 0.25 | 0.18 | 88 | 1000.3 |
| 20260505094004 | 12 | 220 | 1.6 | 9.7 | 0.18 | 0.25 | 0.18 | 87 | 1000.2 |
| 20260505093504 | 12 | 217 | 3.2 | 12.9 | 0.18 | 0.25 | 0.18 | 87 | 1000.0 |
| 20260505093004 | 12 | 221 | 3.2 | 12.9 | 0.15 | 0.23 | 0.15 | 87 | 1000.0 |
| 20260505092504 | 12 | 209 | 3.2 | 11.3 | 0.15 | 0.23 | 0.15 | 88 | 1000.0 |
| 20260505092004 | 12 | 151 | 1.6 | 9.7 | 0.15 | 0.23 | 0.15 | 88 | 1000.2 |
| 20260505091504 | 12 | 164 | 1.6 | 9.7 | 0.15 | 0.23 | 0.15 | 85 | 1000.2 |
| 20260505091004 | 13 | 167 | 1.6 | 9.7 | 0.08 | 0.15 | 0.08 | 81 | 1000.7 |
| 20260505090504 | 13 | 163 | 3.2 | 9.7 | 0.03 | 0.10 | 0.03 | 76 | 1000.4 |
| 20260505090004 | 13 | 159 | 3.2 | 9.7 | 0.00 | 0.08 | 0.00 | 74 | 1000.5 |
| 20260505085504 | 13 | 160 | 3.2 | 9.7 | 0.00 | 0.08 | 0.00 | 74 | 1000.4 |
| 20260505085004 | 13 | 174 | 1.6 | 6.4 | 0.00 | 0.08 | 0.00 | 76 | 1000.5 |
| 20260505084504 | 13 | 195 | 1.6 | 6.4 | 0.00 | 0.08 | 0.00 | 76 | 1000.5 |
| 20260505084004 | 13 | 174 | 1.6 | 6.4 | 0.00 | 0.08 | 0.00 | 75 | 1000.6 |
| 20260505083504 | 13 | 152 | 1.6 | 6.4 | 0.00 | 0.08 | 0.00 | 75 | 1000.9 |
| 20260505083005 | 13 | 146 | 1.6 | 6.4 | 0.00 | 0.08 | 0.00 | 75 | 1000.7 |
| 20260505082504 | 13 | 152 | 3.2 | 6.4 | 0.00 | 0.08 | 0.00 | 75 | 1001.0 |
| 20260505082004 | 12 | 175 | 3.2 | 9.7 | 0.00 | 0.08 | 0.00 | 74 | 1001.0 |
| 20260505081504 | 12 | 197 | 1.6 | 9.7 | 0.00 | 0.08 | 0.00 | 75 | 1000.8 |
| 20260505081004 | 12 | 214 | 1.6 | 11.3 | 0.00 | 0.08 | 0.00 | 76 | 1000.9 |
| 20260505080504 | 12 | 216 | 1.6 | 11.3 | 0.00 | 0.08 | 0.00 | 75 | 1001.1 |
| 20260505080004 | 12 | 178 | 1.6 | 4.8 | 0.00 | 0.08 | 0.00 | 75 | 1000.9 |
| 20260505075504 | 12 | 172 | 1.6 | 4.8 | 0.00 | 0.08 | 0.00 | 75 | 1000.9 |
| 20260505075004 | 12 | 250 | 1.6 | 3.2 | 0.00 | 0.08 | 0.00 | 76 | 1000.9 |
| 20260505074504 | 12 | 302 | 0.0 | 3.2 | 0.00 | 0.08 | 0.00 | 77 | 1001.0 |
| 20260505074004 | 12 | 164 | 1.6 | 3.2 | 0.00 | 0.08 | 0.00 | 78 | 1001.1 |
| 20260505073504 | 11 | 220 | 1.6 | 4.8 | 0.00 | 0.08 | 0.00 | 80 | 1001.2 |
| 20260505073004 | 11 | 190 | 1.6 | 9.7 | 0.00 | 0.08 | 0.00 | 82 | 1001.1 |
| 20260505072504 | 11 | 100 | 3.2 | 9.7 | 0.00 | 0.08 | 0.00 | 82 | 1001.0 |
| 20260505072004 | 11 | 40 | 1.6 | 4.8 | 0.00 | 0.08 | 0.00 | 85 | 1001.0 |
| 20260505071504 | 11 | 181 | 1.6 | 4.8 | 0.00 | 0.08 | 0.00 | 85 | 1001.1 |
| 20260505071004 | 11 | 183 | 1.6 | 3.2 | 0.00 | 0.08 | 0.00 | 85 | 1000.9 |
| 20260505070504 | 11 | 174 | 1.6 | 6.4 | 0.00 | 0.08 | 0.00 | 85 | 1000.9 |
| 20260505070004 | 11 | 169 | 1.6 | 6.4 | 0.00 | 0.08 | 0.00 | 85 | 1000.9 |
| 20260505065504 | 12 | 174 | 1.6 | 4.8 | 0.00 | 0.08 | 0.00 | 85 | 1000.9 |
| 20260505065004 | 12 | 190 | 1.6 | 12.9 | 0.00 | 0.08 | 0.00 | 83 | 1001.0 |
| 20260505064504 | 12 | 178 | 3.2 | 14.5 | 0.00 | 0.08 | 0.00 | 79 | 1001.1 |
| 20260505064004 | 13 | 160 | 3.2 | 14.5 | 0.00 | 0.08 | 0.00 | 76 | 1000.7 |
| 20260505063504 | 12 | 172 | 1.6 | 6.4 | 0.00 | 0.08 | 0.00 | 72 | 1001.3 |
| 20260505063004 | 12 | 219 | 0.0 | 3.2 | 0.00 | 0.08 | 0.00 | 68 | 1001.2 |
| 20260505062504 | 12 | 200 | 0.0 | 4.8 | 0.00 | 0.08 | 0.00 | 67 | 1001.0 |
| 20260505062004 | 12 | 213 | 0.0 | 4.8 | 0.00 | 0.08 | 0.00 | 67 | 1001.1 |
| 20260505061504 | 12 | 212 | 1.6 | 4.8 | 0.00 | 0.08 | 0.00 | 66 | 1000.7 |
| 20260505061004 | 12 | 202 | 1.6 | 4.8 | 0.00 | 0.08 | 0.00 | 66 | 1000.8 |
| 20260505060504 | 12 | 220 | 1.6 | 4.8 | 0.00 | 0.08 | 0.00 | 65 | 1000.8 |
| 20260505060004 | 12 | 229 | 1.6 | 4.8 | 0.00 | 0.08 | 0.00 | 66 | 1000.9 |
| 20260505055504 | 12 | 212 | 1.6 | 4.8 | 0.00 | 0.08 | 0.00 | 65 | 1000.9 |
| 20260505055004 | 12 | 204 | 0.0 | 9.7 | 0.00 | 0.08 | 0.00 | 66 | 1000.9 |
| 20260505054504 | 12 | 211 | 0.0 | 9.7 | 0.00 | 0.08 | 0.00 | 66 | 1000.9 |
| 20260505054004 | 11 | 286 | 1.6 | 4.8 | 0.00 | 0.08 | 0.00 | 67 | 1001.1 |
| 20260505053504 | 11 | 280 | 1.6 | 4.8 | 0.00 | 0.08 | 0.00 | 68 | 1001.0 |
| 20260505053004 | 11 | 256 | 0.0 | 4.8 | 0.00 | 0.08 | 0.00 | 68 | 1001.0 |
| 20260505052504 | 11 | 198 | 0.0 | 1.6 | 0.00 | 0.08 | 0.00 | 69 | 1001.0 |
| 20260505052004 | 11 | 189 | 0.0 | 1.6 | 0.00 | 0.08 | 0.00 | 68 | 1000.9 |
| 20260505051504 | 11 | 163 | 0.0 | 1.6 | 0.00 | 0.08 | 0.00 | 68 | 1001.0 |
| 20260505051004 | 11 | 0 | 0.0 | 0.0 | 0.00 | 0.08 | 0.00 | 68 | 1001.2 |
| 20260505050504 | 11 | 0 | 0.0 | 0.0 | 0.00 | 0.08 | 0.00 | 69 | 1001.1 |
| 20260505041504 | 11 | 0 | 0.0 | 0.0 | 0.00 | 0.08 | 0.00 | 66 | 1001.7 |
| 20260505041004 | 11 | 0 | 0.0 | 0.0 | 0.00 | 0.08 | 0.00 | 66 | 1001.8 |
| 20260505040504 | 11 | 0 | 0.0 | 0.0 | 0.00 | 0.08 | 0.00 | 66 | 1001.7 |
| 20260505040005 | 11 | 0 | 0.0 | 0.0 | 0.00 | 0.08 | 0.00 | 66 | 1001.8 |
| 20260505035504 | 11 | 0 | 0.0 | 0.0 | 0.00 | 0.08 | 0.08 | 65 | 1001.8 |
| 20260505035004 | 11 | 0 | 0.0 | 0.0 | 0.00 | 0.08 | 0.08 | 65 | 1001.7 |
| 20260505034504 | 11 | 0 | 0.0 | 0.0 | 0.00 | 0.08 | 0.08 | 65 | 1001.7 |
| 20260505034004 | 11 | 0 | 0.0 | 0.0 | 0.00 | 0.08 | 0.08 | 65 | 1001.8 |
| 20260505033504 | 11 | 0 | 0.0 | 0.0 | 0.00 | 0.08 | 0.08 | 64 | 1001.8 |
| 20260505033004 | 11 | 0 | 0.0 | 0.0 | 0.00 | 0.08 | 0.08 | 65 | 1001.8 |
| 20260505032504 | 11 | 0 | 0.0 | 0.0 | 0.00 | 0.08 | 0.08 | 66 | 1001.9 |
| 20260505032004 | 11 | 0 | 0.0 | 0.0 | 0.00 | 0.08 | 0.08 | 67 | 1001.9 |
| 20260505031504 | 11 | 0 | 0.0 | 0.0 | 0.00 | 0.08 | 0.08 | 67 | 1001.9 |
| 20260505031004 | 11 | 0 | 0.0 | 0.0 | 0.00 | 0.08 | 0.08 | 67 | 1002.1 |
| 20260505030504 | 11 | 0 | 0.0 | 0.0 | 0.00 | 0.08 | 0.08 | 67 | 1002.0 |
| 20260505030004 | 11 | 0 | 0.0 | 0.0 | 0.00 | 0.08 | 0.08 | 66 | 1002.2 |
| 20260505025504 | 11 | 0 | 0.0 | 0.0 | 0.00 | 0.08 | 0.08 | 67 | 1002.1 |
| 20260505025004 | 11 | 0 | 0.0 | 0.0 | 0.00 | 0.08 | 0.08 | 68 | 1002.0 |